Time;durP1;ratioP1;P1;durP2;ratioP2;P2;SDS_P1;SDS_P2;PMS_P1;PMS_P2;Temp;Humidity;BMP_temperature;BMP_pressure;BME280_temperature;BME280_humidity;BME280_pressure;Samples;Min_cycle;Max_cycle;Signal;HPM_P1;HPM_P2
2021/10/17 00:02:20;;;;;;;;;11.50;10.00;;;;;14.90;50.75;101250.44;5076964;28;45838;-82
2021/10/17 00:04:46;;;;;;;;;8.00;7.25;;;;;14.81;50.36;101245.91;5074321;28;45885;-81
2021/10/17 00:07:12;;;;;;;;;11.75;8.25;;;;;14.87;50.58;101255.13;5074688;28;45785;-82
2021/10/17 00:09:38;;;;;;;;;15.00;11.00;;;;;14.78;50.58;101248.78;5074713;28;45615;-81
2021/10/17 00:12:08;;;;;;;;;9.25;8.50;;;;;14.79;50.79;101247.00;5074980;28;45908;-81
2021/10/17 00:14:34;;;;;;;;;9.25;8.50;;;;;14.69;50.60;101236.28;5074479;28;45793;-81
2021/10/17 00:17:00;;;;;;;;;8.50;7.75;;;;;14.71;50.84;101244.94;5069875;28;45876;-83
2021/10/17 00:19:25;;;;;;;;;11.00;9.50;;;;;14.76;50.61;101250.69;5065881;28;46122;-81
2021/10/17 00:21:51;;;;;;;;;8.00;8.00;;;;;14.70;50.58;101236.19;5069012;28;46701;-81
2021/10/17 00:24:16;;;;;;;;;10.00;8.75;;;;;14.65;50.81;101234.88;5065241;28;45753;-81
2021/10/17 00:26:42;;;;;;;;;8.75;8.00;;;;;14.53;50.61;101218.19;5074021;28;45659;-80
2021/10/17 00:29:07;;;;;;;;;11.75;9.25;;;;;14.68;50.55;101247.84;5058968;28;45997;-81
2021/10/17 00:31:33;;;;;;;;;9.75;9.00;;;;;14.65;50.54;101243.63;5073980;28;46828;-80
2021/10/17 00:33:58;;;;;;;;;11.75;10.50;;;;;14.56;50.70;101230.31;5073675;28;45695;-80
2021/10/17 00:36:27;;;;;;;;;10.25;8.25;;;;;14.62;50.67;101248.31;5068917;28;45635;-81
2021/10/17 00:38:53;;;;;;;;;10.75;9.25;;;;;14.61;50.54;101247.47;5064764;28;46309;-81
2021/10/17 00:41:19;;;;;;;;;9.25;8.25;;;;;14.51;51.00;101235.13;5071992;28;48134;-81
2021/10/17 00:43:45;;;;;;;;;12.00;11.75;;;;;14.51;51.16;101238.59;5073286;28;45709;-80
2021/10/17 00:46:19;;;;;;;;;9.50;8.25;;;;;14.55;50.91;101250.56;5069235;28;45695;-80
2021/10/17 00:48:44;;;;;;;;;12.25;10.50;;;;;14.36;51.05;101223.09;5066128;28;45740;-80
2021/10/17 00:51:10;;;;;;;;;13.50;12.00;;;;;14.42;50.92;101238.44;5073142;28;45802;-80
2021/10/17 00:53:36;;;;;;;;;15.50;14.00;;;;;14.51;50.92;101248.28;5061506;28;45787;-80
2021/10/17 00:56:02;;;;;;;;;16.25;13.75;;;;;14.49;51.38;101243.13;5072850;28;45848;-80
2021/10/17 00:58:28;;;;;;;;;16.50;14.50;;;;;14.37;51.11;101228.25;5061464;28;45625;-80
2021/10/17 01:00:53;;;;;;;;;14.25;12.00;;;;;14.44;51.08;101241.81;5072504;28;46098;-80
2021/10/17 01:03:19;;;;;;;;;15.00;14.00;;;;;14.35;51.22;101218.75;5061065;28;46069;-81
2021/10/17 01:05:45;;;;;;;;;15.00;14.00;;;;;14.41;50.94;101234.16;5054360;28;45798;-81
2021/10/17 01:08:11;;;;;;;;;18.50;17.00;;;;;14.43;51.09;101237.50;5068966;28;45706;-81
2021/10/17 01:10:36;;;;;;;;;12.00;11.75;;;;;14.34;51.21;101228.47;5070843;28;45599;-81
2021/10/17 01:13:02;;;;;;;;;16.75;15.00;;;;;14.35;51.71;101222.25;5072532;28;45725;-80
2021/10/17 01:15:27;;;;;;;;;17.25;15.50;;;;;14.37;51.32;101233.53;5072957;28;46034;-81
2021/10/17 01:17:53;;;;;;;;;19.00;16.00;;;;;14.28;51.47;101219.22;5071651;28;46400;-79
2021/10/17 01:20:18;;;;;;;;;16.50;15.00;;;;;14.37;51.64;101237.94;5071530;28;46353;-80
2021/10/17 01:22:44;;;;;;;;;23.75;18.25;;;;;14.26;51.66;101217.66;5072291;28;45675;-80
2021/10/17 01:25:10;;;;;;;;;16.75;15.25;;;;;14.35;51.49;101229.31;5059192;28;45997;-80
2021/10/17 01:27:36;;;;;;;;;16.75;15.25;;;;;14.23;52.09;101204.72;5072737;28;46789;-81
2021/10/17 01:30:03;;;;;;;;;15.50;12.75;;;;;14.29;51.56;101214.81;5072654;28;46751;-80
2021/10/17 01:32:29;;;;;;;;;16.50;13.00;;;;;14.33;52.18;101220.66;5072533;28;45959;-82
2021/10/17 01:34:54;;;;;;;;;15.00;13.75;;;;;14.32;52.02;101233.00;5059103;28;45954;-81
2021/10/17 01:37:20;;;;;;;;;15.25;14.50;;;;;14.19;51.88;101209.41;5053761;28;47375;-81
2021/10/17 01:39:45;;;;;;;;;17.50;15.50;;;;;14.30;52.12;101225.22;5072368;28;45654;-80
2021/10/17 01:42:11;;;;;;;;;19.25;18.75;;;;;14.23;52.09;101216.13;5072848;28;45868;-80
2021/10/17 01:44:37;;;;;;;;;15.25;14.25;;;;;14.28;52.37;101227.13;5072743;28;45868;-81
2021/10/17 01:47:06;;;;;;;;;17.50;15.25;;;;;14.28;52.24;101227.13;5074092;28;46602;-81
2021/10/17 01:49:32;;;;;;;;;19.25;16.75;;;;;14.15;52.22;101207.09;5061978;28;45701;-81
2021/10/17 01:51:57;;;;;;;;;15.00;14.75;;;;;13.94;52.63;101177.97;5077446;28;45833;-81
2021/10/17 01:54:23;;;;;;;;;17.25;16.00;;;;;14.01;52.31;101189.72;5076658;28;45625;-81
2021/10/17 01:56:49;;;;;;;;;15.50;14.75;;;;;14.23;52.25;101228.44;5077012;28;46291;-81
2021/10/17 01:59:15;;;;;;;;;19.75;18.50;;;;;14.01;52.70;101187.09;5073693;28;46083;-80
2021/10/17 02:01:41;;;;;;;;;20.00;16.25;;;;;14.22;52.50;101232.03;5072221;28;45637;-80
2021/10/17 02:04:06;;;;;;;;;19.75;15.75;;;;;14.19;52.60;101225.22;5071977;28;45574;-80
2021/10/17 02:06:32;;;;;;;;;16.50;15.00;;;;;14.16;52.78;101222.81;5072475;28;46467;-80
2021/10/17 02:08:59;;;;;;;;;18.25;16.00;;;;;14.12;52.76;101217.88;5068998;28;46114;-80
2021/10/17 02:11:25;;;;;;;;;14.75;13.75;;;;;14.06;52.66;101211.28;5072273;28;45968;-81
2021/10/17 02:13:51;;;;;;;;;18.25;16.25;;;;;14.14;52.96;101224.69;5071714;28;45632;-81
2021/10/17 02:16:16;;;;;;;;;18.00;17.25;;;;;14.13;53.00;101222.19;5072277;28;45578;-80
2021/10/17 02:18:42;;;;;;;;;19.25;15.00;;;;;14.12;52.88;101207.34;5071581;28;46750;-80
2021/10/17 02:21:08;;;;;;;;;17.50;15.50;;;;;14.10;53.04;101215.34;5071914;28;45628;-80
2021/10/17 02:23:34;;;;;;;;;14.00;14.00;;;;;14.10;52.76;101217.16;5071571;28;45694;-82
2021/10/17 02:25:59;;;;;;;;;16.75;16.00;;;;;14.08;53.28;101214.66;5058557;28;45726;-80
2021/10/17 02:28:25;;;;;;;;;16.50;14.75;;;;;14.06;53.16;101213.91;5063098;28;45542;-81
2021/10/17 02:30:50;;;;;;;;;20.50;17.00;;;;;13.76;52.95;101177.56;5071886;28;45749;-81
2021/10/17 02:33:16;;;;;;;;;18.25;15.25;;;;;14.00;53.46;101211.75;5071444;28;46086;-81
2021/10/17 02:35:41;;;;;;;;;14.50;13.00;;;;;13.99;53.15;101217.13;5071962;28;46636;-81
2021/10/17 02:38:06;;;;;;;;;18.25;16.25;;;;;13.97;53.16;101216.41;5071348;28;45831;-81
2021/10/17 02:40:32;;;;;;;;;15.25;14.75;;;;;13.89;53.27;101216.97;5071902;28;45625;-81
2021/10/17 02:42:57;;;;;;;;;17.00;17.00;;;;;13.84;53.39;101211.22;5071603;28;45832;-81
2021/10/17 02:45:23;;;;;;;;;20.75;17.50;;;;;13.88;53.53;101215.28;5070913;28;45688;-81
2021/10/17 02:47:48;;;;;;;;;19.50;18.25;;;;;13.90;53.64;101217.81;5070788;28;45834;-81
2021/10/17 02:50:14;;;;;;;;;17.50;17.00;;;;;13.85;53.78;101203.22;5071664;28;45667;-80
2021/10/17 02:52:39;;;;;;;;;17.25;17.00;;;;;13.78;53.88;101195.88;5070962;28;45617;-81
2021/10/17 02:55:05;;;;;;;;;14.00;14.00;;;;;13.71;53.70;101182.31;5071626;28;45906;-81
2021/10/17 02:57:31;;;;;;;;;15.75;15.75;;;;;13.71;53.90;101176.25;5069366;28;45894;-81
2021/10/17 02:59:57;;;;;;;;;19.50;17.75;;;;;13.77;53.49;101191.56;5071637;28;45766;-81
2021/10/17 03:02:22;;;;;;;;;16.75;15.75;;;;;13.67;53.79;101174.78;5071579;28;45648;-80
2021/10/17 03:04:47;;;;;;;;;12.00;10.25;;;;;13.74;53.67;101189.16;5071266;28;45719;-81
2021/10/17 03:07:13;;;;;;;;;19.25;16.25;;;;;13.81;53.61;101201.78;5070591;28;46420;-81
2021/10/17 03:09:38;;;;;;;;;15.75;14.25;;;;;13.65;53.60;101180.16;5067237;28;45723;-80
2021/10/17 03:12:04;;;;;;;;;16.25;15.75;;;;;13.80;53.70;101210.63;5071562;28;45996;-81
2021/10/17 03:14:30;;;;;;;;;15.00;14.00;;;;;13.79;53.83;101208.94;5071354;28;46801;-81
2021/10/17 03:16:55;;;;;;;;;18.75;16.25;;;;;13.79;54.08;101210.72;5071249;28;46308;-80
2021/10/17 03:19:20;;;;;;;;;18.75;18.00;;;;;13.74;54.09;101204.97;5059470;28;45701;-80
2021/10/17 03:21:46;;;;;;;;;16.25;13.75;;;;;13.72;54.06;101198.97;5069409;28;45814;-78
2021/10/17 03:24:12;;;;;;;;;14.00;14.00;;;;;13.51;53.82;101168.97;5070758;28;45673;-79
2021/10/17 03:26:37;;;;;;;;;15.00;14.00;;;;;13.75;54.10;101204.84;5061284;28;46052;-79
2021/10/17 03:29:02;;;;;;;;;13.50;13.25;;;;;13.74;54.46;101204.97;5066811;28;45903;-78
2021/10/17 03:31:28;;;;;;;;;15.75;14.50;;;;;13.69;54.25;101193.94;5066117;28;45685;-80
2021/10/17 03:33:55;;;;;;;;;14.75;13.75;;;;;13.53;54.06;101165.28;5072410;28;45816;-80
2021/10/17 03:36:20;;;;;;;;;20.00;14.25;;;;;13.71;54.33;101190.22;5075350;28;46173;-81
2021/10/17 03:38:45;;;;;;;;;19.75;14.75;;;;;13.69;54.15;101193.94;5074800;28;45666;-80
2021/10/17 03:41:13;;;;;;;;;19.00;14.25;;;;;13.69;54.24;101193.94;5074998;28;45756;-81
2021/10/17 03:43:39;;;;;;;;;16.50;15.75;;;;;13.52;54.28;101160.13;5074818;28;45692;-80
2021/10/17 03:46:05;;;;;;;;;15.00;15.00;;;;;13.67;54.42;101180.88;5074238;28;46154;-81
2021/10/17 03:48:30;;;;;;;;;15.25;14.75;;;;;13.64;54.63;101178.47;5073958;28;45740;-80
2021/10/17 03:50:56;;;;;;;;;16.75;14.00;;;;;13.65;54.46;101176.69;5071248;28;45715;-79
2021/10/17 03:53:21;;;;;;;;;23.25;15.25;;;;;13.63;54.38;101183.84;5064710;28;46662;-81
2021/10/17 03:55:46;;;;;;;;;20.75;17.50;;;;;13.62;54.50;101185.66;5060501;28;45991;-80
2021/10/17 03:58:12;;;;;;;;;14.00;13.25;;;;;13.62;54.33;101183.00;5074476;28;46095;-79
2021/10/17 04:00:37;;;;;;;;;18.25;17.50;;;;;13.31;54.31;101134.44;5074458;28;45550;-83
2021/10/17 04:03:03;;;;;;;;;14.25;14.00;;;;;13.46;54.62;101164.03;5074062;28;46050;-82
2021/10/17 04:05:28;;;;;;;;;15.50;15.25;;;;;13.42;54.44;101168.72;5074125;28;46174;-82
2021/10/17 04:07:53;;;;;;;;;18.00;16.25;;;;;13.56;54.66;101188.72;5073557;28;45821;-82
2021/10/17 04:10:19;;;;;;;;;21.75;19.75;;;;;13.55;54.53;101183.59;5063306;28;45692;-81
2021/10/17 04:12:44;;;;;;;;;20.50;17.25;;;;;13.44;54.60;101177.31;5073251;28;46276;-80
2021/10/17 04:15:10;;;;;;;;;25.00;19.50;;;;;13.50;54.46;101183.06;5073869;28;46122;-79
2021/10/17 04:17:35;;;;;;;;;19.75;17.00;;;;;13.43;54.43;101172.19;5074134;28;46063;-80
2021/10/17 04:20:01;;;;;;;;;19.00;16.75;;;;;13.48;55.07;101180.59;5072619;28;45760;-80
2021/10/17 04:22:26;;;;;;;;;18.00;16.75;;;;;13.47;54.92;101178.06;5073335;28;45721;-80
2021/10/17 04:24:52;;;;;;;;;16.00;14.50;;;;;13.43;54.94;101178.28;5073603;28;45696;-80
2021/10/17 04:27:17;;;;;;;;;19.00;15.50;;;;;13.34;54.62;101160.53;5073161;28;46076;-79
2021/10/17 04:29:43;;;;;;;;;19.25;16.75;;;;;13.40;54.65;101182.91;5073622;28;46003;-80
2021/10/17 04:32:09;;;;;;;;;20.50;18.00;;;;;13.30;54.82;101168.75;5074137;28;45829;-81
2021/10/17 04:34:35;;;;;;;;;20.00;18.25;;;;;13.28;54.81;101183.84;5073284;28;46360;-80
2021/10/17 04:37:02;;;;;;;;;20.50;18.75;;;;;13.32;54.77;101185.28;5072292;28;46720;-80
2021/10/17 04:39:28;;;;;;;;;16.25;16.25;;;;;13.29;54.98;101181.06;5072966;28;45557;-80
2021/10/17 04:41:53;;;;;;;;;18.75;17.50;;;;;13.11;55.07;101148.19;5073429;28;45862;-80
2021/10/17 04:44:19;;;;;;;;;15.25;13.50;;;;;13.28;55.25;101179.41;5071742;28;46225;-79
2021/10/17 04:46:45;;;;;;;;;19.00;17.25;;;;;13.27;55.05;101180.38;5073411;28;45610;-81
2021/10/17 04:49:11;;;;;;;;;17.25;17.00;;;;;13.25;54.92;101182.25;5072934;28;45743;-79
2021/10/17 04:51:36;;;;;;;;;20.75;19.00;;;;;13.24;55.09;101174.47;5064010;28;46412;-81
2021/10/17 04:54:01;;;;;;;;;14.00;14.00;;;;;13.15;55.21;101169.88;5069074;28;46901;-81
2021/10/17 04:56:27;;;;;;;;;19.50;17.00;;;;;13.20;55.26;101194.91;5073559;28;46231;-81
2021/10/17 04:58:52;;;;;;;;;22.25;19.75;;;;;13.18;55.40;101188.06;5059473;28;45827;-81
2021/10/17 05:01:18;;;;;;;;;15.25;14.75;;;;;13.15;55.12;101180.41;5073363;28;46525;-82
2021/10/17 05:03:43;;;;;;;;;19.00;18.00;;;;;13.15;55.65;101188.31;5073009;28;46028;-81
2021/10/17 05:06:10;;;;;;;;;19.25;19.00;;;;;13.16;55.55;101192.63;5073101;28;46125;-80
2021/10/17 05:08:36;;;;;;;;;17.25;13.75;;;;;13.16;55.54;101187.38;5073410;28;45794;-81
2021/10/17 05:11:02;;;;;;;;;18.00;16.25;;;;;13.14;55.44;101195.34;5071289;28;45708;-79
2021/10/17 05:13:28;;;;;;;;;15.25;13.00;;;;;12.99;55.54;101165.72;5073493;28;46056;-81
2021/10/17 05:15:53;;;;;;;;;21.25;19.50;;;;;13.12;55.41;101191.97;5074023;28;45897;-81
2021/10/17 05:18:19;;;;;;;;;21.50;19.25;;;;;13.12;55.67;101191.97;5073883;28;45680;-80
2021/10/17 05:20:44;;;;;;;;;22.75;19.25;;;;;13.12;55.58;101191.16;5079020;28;45668;-80
2021/10/17 05:23:13;;;;;;;;;19.50;17.25;;;;;13.08;55.73;101187.88;5076630;28;46595;-81
2021/10/17 05:25:39;;;;;;;;;20.00;19.25;;;;;13.09;55.26;101186.09;5078572;28;45557;-82
2021/10/17 05:28:05;;;;;;;;;19.50;18.25;;;;;13.07;55.28;101190.59;5074229;28;45772;-79
2021/10/17 05:30:32;;;;;;;;;18.50;15.50;;;;;12.91;55.43;101165.41;5073222;28;45686;-81
2021/10/17 05:32:58;;;;;;;;;19.25;17.00;;;;;13.04;55.75;101199.56;5072090;28;46637;-80
2021/10/17 05:35:24;;;;;;;;;20.00;17.00;;;;;12.94;55.72;101181.00;5072801;28;45732;-81
2021/10/17 05:37:49;;;;;;;;;14.25;13.50;;;;;13.01;56.01;101197.97;5054197;28;45815;-82
2021/10/17 05:40:15;;;;;;;;;20.50;18.00;;;;;12.94;55.72;101191.50;5067981;28;47625;-80
2021/10/17 05:42:41;;;;;;;;;14.25;13.50;;;;;12.81;55.79;101160.91;5067345;28;45720;-82
2021/10/17 05:45:06;;;;;;;;;18.75;18.00;;;;;12.95;55.91;101201.09;5072215;28;45678;-80
2021/10/17 05:47:32;;;;;;;;;20.00;17.00;;;;;12.87;55.57;101190.25;5072299;28;46115;-82
2021/10/17 05:49:58;;;;;;;;;15.25;14.50;;;;;12.81;55.74;101179.31;5072588;28;46434;-82
2021/10/17 05:52:23;;;;;;;;;21.75;16.75;;;;;12.82;56.15;101184.47;5072271;28;45760;-82
2021/10/17 05:54:48;;;;;;;;;17.50;17.00;;;;;12.73;55.71;101169.38;5072825;28;45684;-82
2021/10/17 05:57:14;;;;;;;;;18.00;14.75;;;;;12.86;56.14;101198.25;5071777;28;45596;-81
2021/10/17 05:59:39;;;;;;;;;21.75;16.00;;;;;12.63;55.63;101170.97;5072329;28;46441;-82
2021/10/17 06:02:04;;;;;;;;;18.00;16.00;;;;;12.81;55.63;101195.94;5072394;28;45629;-82
2021/10/17 06:04:31;;;;;;;;;20.00;18.75;;;;;12.71;56.10;101188.81;5072218;28;45696;-82
2021/10/17 06:06:57;;;;;;;;;18.25;17.50;;;;;12.74;56.06;101196.50;5072185;28;45599;-82
2021/10/17 06:09:23;;;;;;;;;15.75;14.50;;;;;12.67;56.05;101195.25;5065899;28;46267;-82
2021/10/17 06:11:48;;;;;;;;;16.00;15.00;;;;;12.59;55.99;101180.00;5069909;28;47661;-82
2021/10/17 06:14:14;;;;;;;;;18.50;16.75;;;;;12.63;56.06;101191.16;5071462;28;45697;-82
2021/10/17 06:16:39;;;;;;;;;21.25;19.25;;;;;12.72;55.81;101209.75;5072324;28;45614;-82
2021/10/17 06:19:04;;;;;;;;;19.25;18.25;;;;;12.61;55.83;101188.63;5071977;28;45749;-82
2021/10/17 06:21:30;;;;;;;;;17.50;16.25;;;;;12.71;55.97;101208.06;5071842;28;46311;-81
2021/10/17 06:23:55;;;;;;;;;18.50;17.00;;;;;12.58;55.97;101194.94;5072009;28;46033;-80
2021/10/17 06:26:21;;;;;;;;;17.00;15.50;;;;;12.61;56.10;101207.88;5071384;28;45711;-82
2021/10/17 06:28:46;;;;;;;;;19.00;18.00;;;;;12.49;56.39;101197.38;5071613;28;46179;-81
2021/10/17 06:31:12;;;;;;;;;18.25;17.25;;;;;12.67;56.27;101229.44;5071476;28;46511;-81
2021/10/17 06:33:37;;;;;;;;;16.00;15.75;;;;;12.36;56.31;101172.91;5053212;28;45799;-82
2021/10/17 06:36:03;;;;;;;;;18.00;17.25;;;;;12.63;56.25;101234.88;5067926;28;45925;-80
2021/10/17 06:38:28;;;;;;;;;21.00;19.00;;;;;12.61;56.41;101233.31;5060156;28;45927;-81
2021/10/17 06:40:53;;;;;;;;;20.75;18.25;;;;;12.59;56.39;101240.47;5053860;28;46929;-86
2021/10/17 06:43:19;;;;;;;;;18.75;16.75;;;;;12.41;56.70;101213.69;5068125;28;46005;-86
2021/10/17 06:45:44;;;;;;;;;18.00;18.00;;;;;12.23;56.43;101196.53;5058202;28;45648;-85
2021/10/17 06:48:10;;;;;;;;;19.50;17.50;;;;;12.54;56.32;101253.09;5058606;28;46663;-80
2021/10/17 06:50:35;;;;;;;;;19.25;18.00;;;;;12.48;56.11;101242.97;5071886;28;46861;-81
2021/10/17 06:53:00;;;;;;;;;17.00;15.75;;;;;12.50;56.35;101249.00;5070999;27;45728;-83
2021/10/17 06:55:26;;;;;;;;;18.00;17.00;;;;;12.36;56.07;101233.34;5070906;28;45961;-81
2021/10/17 06:57:51;;;;;;;;;16.50;15.25;;;;;12.38;56.41;101244.56;5072918;28;46176;-87
2021/10/17 07:00:17;;;;;;;;;20.25;16.75;;;;;12.31;56.20;101235.44;5068699;28;46104;-86
2021/10/17 07:02:42;;;;;;;;;19.75;17.25;;;;;12.45;56.52;101259.81;5073019;28;45728;-79
2021/10/17 07:05:08;;;;;;;;;17.50;16.50;;;;;12.42;56.40;101253.91;5073536;28;45843;-88
2021/10/17 07:07:33;;;;;;;;;16.75;16.00;;;;;12.43;56.46;101266.13;5078463;28;45802;-80
2021/10/17 07:09:59;;;;;;;;;19.25;16.50;;;;;12.24;56.44;101226.28;5055289;28;45792;-87
2021/10/17 07:12:25;;;;;;;;;19.75;18.00;;;;;12.47;56.65;101270.25;5079656;27;46183;-84
2021/10/17 07:14:52;;;;;;;;;18.00;17.00;;;;;12.41;56.63;101255.72;5074415;28;45626;-89
2021/10/17 07:17:18;;;;;;;;;18.50;16.25;;;;;12.24;56.84;101221.03;5072501;28;46499;-84
2021/10/17 07:19:46;;;;;;;;;21.00;20.00;;;;;12.31;56.75;101232.81;5077357;28;46169;-85
2021/10/17 07:22:13;;;;;;;;;19.75;18.25;;;;;12.39;56.63;101248.88;5074815;28;45802;-87
2021/10/17 07:24:38;;;;;;;;;19.50;17.50;;;;;12.30;56.75;101229.34;5071789;28;45577;-83
2021/10/17 07:27:04;;;;;;;;;21.25;17.00;;;;;12.48;56.74;101258.75;5053938;28;47353;-75
2021/10/17 07:29:29;;;;;;;;;21.25;19.00;;;;;12.52;56.78;101265.50;5073389;27;45862;-82
2021/10/17 07:31:55;;;;;;;;;20.00;19.00;;;;;12.53;57.08;101264.53;5073834;27;45735;-81
2021/10/17 07:34:20;;;;;;;;;24.50;22.00;;;;;12.53;56.90;101260.13;5071048;28;45844;-80
2021/10/17 07:36:46;;;;;;;;;21.75;20.25;;;;;12.51;56.96;101258.56;5074047;28;46443;-83
2021/10/17 07:39:12;;;;;;;;;25.75;18.75;;;;;12.55;57.17;101262.66;5071024;27;46340;-78
2021/10/17 07:41:39;;;;;;;;;25.75;24.25;;;;;12.56;57.09;101269.59;5069758;28;45989;-81
2021/10/17 07:44:05;;;;;;;;;20.25;18.00;;;;;12.57;56.63;101272.13;5068807;28;45804;-79
2021/10/17 07:46:31;;;;;;;;;21.50;18.50;;;;;12.57;56.78;101274.75;5076029;27;45638;-82
2021/10/17 07:48:58;;;;;;;;;23.00;22.75;;;;;12.59;57.11;101272.84;5074031;28;45917;-83
2021/10/17 07:51:25;;;;;;;;;22.00;19.50;;;;;12.51;57.23;101250.69;5075756;28;45562;-84
2021/10/17 07:53:51;;;;;;;;;23.00;20.50;;;;;12.61;56.87;101273.59;5075861;28;45657;-84
2021/10/17 07:56:16;;;;;;;;;23.00;20.50;;;;;12.56;57.05;101259.94;5068925;28;46733;-84
2021/10/17 07:58:42;;;;;;;;;23.25;19.00;;;;;12.68;57.04;101274.03;5073816;28;46186;-82
2021/10/17 08:01:09;;;;;;;;;20.75;20.50;;;;;12.71;56.84;101268.53;5073925;28;45703;-87
2021/10/17 08:03:38;;;;;;;;;23.75;20.50;;;;;12.69;57.15;101259.06;5057418;28;45990;-84
2021/10/17 08:06:04;;;;;;;;;21.00;19.75;;;;;12.72;56.93;101262.34;5072923;28;45730;-83
2021/10/17 08:08:29;;;;;;;;;20.00;19.50;;;;;12.74;56.97;101263.06;5073189;28;46449;-83
2021/10/17 08:10:55;;;;;;;;;21.25;20.25;;;;;12.76;57.01;101257.69;5073417;27;45770;-80
2021/10/17 08:13:20;;;;;;;;;23.75;22.25;;;;;12.80;56.98;101267.88;5071506;28;46158;-87
2021/10/17 08:15:45;;;;;;;;;26.25;21.75;;;;;12.80;57.04;101261.78;5071588;27;46599;-82
2021/10/17 08:18:11;;;;;;;;;26.75;21.75;;;;;12.82;57.17;101263.38;5073130;27;46274;-80
2021/10/17 08:20:37;;;;;;;;;22.00;21.00;;;;;12.85;56.98;101272.81;5065388;28;45681;-81
2021/10/17 08:23:03;;;;;;;;;23.25;19.75;;;;;12.88;56.75;101276.09;5069033;28;45654;-79
2021/10/17 08:25:31;;;;;;;;;20.75;19.25;;;;;12.91;56.97;101273.25;5073811;28;45664;-80
2021/10/17 08:27:57;;;;;;;;;25.50;21.50;;;;;12.92;57.02;101272.28;5067801;28;46283;-83
2021/10/17 08:30:23;;;;;;;;;24.50;22.25;;;;;12.97;56.94;101278.06;5073302;27;45696;-79
2021/10/17 08:32:48;;;;;;;;;22.00;20.25;;;;;12.98;56.58;101263.13;5073783;28;45584;-79
2021/10/17 08:35:13;;;;;;;;;26.50;22.25;;;;;13.02;56.88;101256.69;5073924;28;45873;-80
2021/10/17 08:37:39;;;;;;;;;25.75;20.00;;;;;13.06;56.92;101258.19;5073612;28;46301;-82
2021/10/17 08:40:05;;;;;;;;;21.75;20.50;;;;;13.03;56.45;101240.81;5056354;28;46208;-79
2021/10/17 08:42:31;;;;;;;;;20.50;19.50;;;;;13.12;56.62;101259.56;5073699;28;45646;-82
2021/10/17 08:44:57;;;;;;;;;27.50;21.50;;;;;12.99;56.90;101230.63;5074099;28;46839;-80
2021/10/17 08:47:27;;;;;;;;;22.00;20.00;;;;;13.17;56.80;101254.81;5073030;28;45751;-81
2021/10/17 08:49:53;;;;;;;;;24.75;20.00;;;;;13.22;56.44;101253.53;5073174;28;45650;-78
2021/10/17 08:52:18;;;;;;;;;23.50;19.75;;;;;13.24;56.69;101248.16;5073036;28;45650;-78
2021/10/17 08:54:44;;;;;;;;;21.50;20.00;;;;;13.29;56.68;101254.75;5073564;28;46276;-77
2021/10/17 08:57:10;;;;;;;;;21.75;20.25;;;;;13.31;56.68;101257.28;5072972;28;46115;-77
2021/10/17 08:59:36;;;;;;;;;19.25;18.50;;;;;13.33;56.29;101260.66;5066058;28;45742;-79
2021/10/17 09:02:22;;;;;;;;;17.25;16.50;;;;;13.31;56.20;101250.25;5069452;28;45857;-77
2021/10/17 09:05:07;;;;;;;;;22.00;18.75;;;;;13.39;56.15;101261.03;5072984;28;46462;-79
2021/10/17 09:07:32;;;;;;;;;21.00;19.75;;;;;13.41;56.34;101258.31;5058680;28;46310;-79
2021/10/17 09:10:13;;;;;;;;;22.00;21.50;;;;;13.45;55.87;101268.50;5082622;27;45689;-80
2021/10/17 09:12:41;;;;;;;;;19.25;18.00;;;;;13.49;56.06;101261.25;5072164;28;45621;-76
2021/10/17 09:15:31;;;;;;;;;20.00;18.25;;;;;13.54;56.10;101264.38;5061063;28;46427;-78
2021/10/17 09:18:08;;;;;;;;;18.75;16.50;;;;;13.57;55.83;101261.50;5058880;28;47065;-79
2021/10/17 09:20:59;;;;;;;;;19.50;16.50;;;;;13.58;55.88;101251.81;5072865;28;45692;-81
2021/10/17 09:23:24;;;;;;;;;19.50;17.75;;;;;13.67;55.84;101265.13;5072669;28;45817;-80
2021/10/17 09:25:51;;;;;;;;;23.00;21.33;;;;;13.71;55.32;101263.94;5072756;28;45628;-81
2021/10/17 09:28:28;;;;;;;;;23.25;18.50;;;;;13.76;55.71;101258.38;5063706;28;46336;-77
2021/10/17 09:31:07;;;;;;;;;17.25;17.00;;;;;13.80;55.67;101267.72;5070147;28;45930;-81
2021/10/17 09:33:34;;;;;;;;;17.00;17.00;;;;;13.86;55.47;101267.28;5069403;28;45785;-80
2021/10/17 09:36:14;;;;;;;;;21.25;18.50;;;;;13.87;55.59;101261.88;5054061;28;46773;-81
2021/10/17 09:38:41;;;;;;;;;18.50;17.25;;;;;13.89;55.20;101248.59;5073067;28;46106;-82
2021/10/17 09:41:18;;;;;;;;;18.25;17.50;;;;;13.98;55.38;101250.53;5072862;28;45775;-82
2021/10/17 09:43:59;;;;;;;;;17.75;16.25;;;;;14.03;55.07;101250.22;5072474;28;45656;-80
2021/10/17 09:46:24;;;;;;;;;19.50;18.50;;;;;14.07;55.32;101249.84;5070116;28;45765;-80
2021/10/17 09:48:51;;;;;;;;;16.50;15.50;;;;;14.13;55.33;101251.19;5071468;28;46306;-81
2021/10/17 09:51:18;;;;;;;;;17.50;15.75;;;;;14.16;55.29;101246.50;5072394;28;45671;-79
2021/10/17 09:53:43;;;;;;;;;16.50;16.00;;;;;14.22;55.17;101247.84;5070443;28;45641;-80
2021/10/17 09:56:10;;;;;;;;;18.00;16.25;;;;;14.26;55.23;101241.38;5071767;28;46196;-82
2021/10/17 09:58:35;;;;;;;;;15.75;15.75;;;;;14.29;54.79;101235.88;5071179;28;47114;-80
2021/10/17 10:01:01;;;;;;;;;17.00;15.50;;;;;14.32;54.65;101237.44;5070472;27;45777;-79
2021/10/17 10:03:27;;;;;;;;;17.00;17.00;;;;;14.40;54.88;101238.56;5069449;28;46041;-80
2021/10/17 10:05:56;;;;;;;;;15.75;14.75;;;;;14.41;54.58;101228.88;5069418;28;46322;-81
2021/10/17 10:08:23;;;;;;;;;19.00;18.00;;;;;14.51;54.61;101245.66;5036755;28;47474;-78
2021/10/17 10:10:49;;;;;;;;;21.00;17.75;;;;;14.54;54.23;101243.63;5071600;28;45829;-80
2021/10/17 10:13:15;;;;;;;;;19.00;18.75;;;;;14.61;54.48;101247.47;5070926;28;45769;-82
2021/10/17 10:15:43;;;;;;;;;19.75;18.00;;;;;14.63;54.22;101248.16;5072020;28;46365;-81
2021/10/17 10:18:11;;;;;;;;;21.00;20.00;;;;;14.66;54.37;101239.19;5071684;28;47225;-80
2021/10/17 10:20:36;;;;;;;;;19.00;18.50;;;;;14.67;54.39;101239.06;5072023;28;45736;-82
2021/10/17 10:23:03;;;;;;;;;17.75;17.00;;;;;14.80;54.03;101251.28;5071734;28;45663;-80
2021/10/17 10:25:29;;;;;;;;;16.75;15.75;;;;;14.85;54.09;101251.75;5071855;28;47573;-83
2021/10/17 10:27:55;;;;;;;;;17.75;16.75;;;;;14.86;54.00;101243.72;5069773;28;47063;-82
2021/10/17 10:30:32;;;;;;;;;18.00;17.50;;;;;14.92;53.97;101240.63;5057412;28;45701;-81
2021/10/17 10:33:07;;;;;;;;;16.50;15.25;;;;;14.99;53.94;101243.63;5065467;27;45705;-80
2021/10/17 10:35:33;;;;;;;;;18.50;17.00;;;;;15.03;54.01;101243.25;5070815;28;45676;-81
2021/10/17 10:37:59;;;;;;;;;18.00;15.50;;;;;15.08;53.63;101243.72;5067274;27;45824;-80
2021/10/17 10:40:25;;;;;;;;;20.50;18.00;;;;;15.10;53.48;101238.31;5069912;27;47187;-79
2021/10/17 10:42:52;;;;;;;;;23.25;18.75;;;;;15.14;53.20;101250.31;5065773;28;46128;-79
2021/10/17 10:45:35;;;;;;;;;20.00;16.75;;;;;15.24;53.57;101250.41;5069846;27;45681;-80
2021/10/17 10:48:13;;;;;;;;;18.00;15.00;;;;;15.29;53.12;101245.59;5064549;28;46186;-80
2021/10/17 10:50:52;;;;;;;;;19.25;18.50;;;;;15.34;53.04;101249.53;5066771;27;45704;-78
2021/10/17 10:53:46;;;;;;;;;19.00;15.50;;;;;15.41;52.75;101244.59;5065971;27;45819;-81
2021/10/17 10:56:39;;;;;;;;;18.00;16.25;;;;;15.47;52.82;101247.59;5060760;28;47504;-85
2021/10/17 10:59:04;;;;;;;;;17.00;14.00;;;;;15.52;52.70;101245.44;5072180;28;46043;-81
2021/10/17 11:01:51;;;;;;;;;52.00;39.50;;;;;15.58;52.67;101235.34;5063204;28;45574;-81
2021/10/17 11:04:41;;;;;;;;;17.75;15.50;;;;;15.62;52.73;101234.97;5070062;27;45854;-82
2021/10/17 11:07:22;;;;;;;;;19.75;18.00;;;;;15.67;52.52;101234.56;5077682;28;47187;-82
2021/10/17 11:09:49;;;;;;;;;17.00;12.00;;;;;15.67;52.45;101224.84;5067568;28;47065;-80